createdAt,value
2023-04-02T00:03:10.632Z,85.17
2023-04-02T00:07:33.687Z,84.93
2023-04-02T00:11:44.055Z,85.15
2023-04-02T00:15:54.306Z,85.09
2023-04-02T00:20:06.823Z,85.35
2023-04-02T00:24:18.606Z,85.72
2023-04-02T00:28:27.433Z,86.27
2023-04-02T00:32:36.729Z,86.51
2023-04-02T00:36:46.780Z,86.64
2023-04-02T00:40:57.584Z,86.06
2023-04-02T00:45:06.793Z,86.13
2023-04-02T00:49:20.742Z,86.41
2023-04-02T00:53:30.816Z,86.45
2023-04-02T00:57:38.835Z,86.63
2023-04-02T01:01:47.580Z,86.70
2023-04-02T01:06:03.311Z,86.54
2023-04-02T01:10:22.808Z,86.19
2023-04-02T01:14:42.809Z,86.27
2023-04-02T01:18:56.985Z,86.58
2023-04-02T01:23:08.412Z,86.21
2023-04-02T01:27:19.905Z,86.13
2023-04-02T01:31:28.934Z,86.70
2023-04-02T01:35:39.292Z,87.13
2023-04-02T01:39:56.490Z,86.71
2023-04-02T01:44:06.901Z,86.86
2023-04-02T01:48:20.127Z,86.74
2023-04-02T01:52:38.799Z,86.48
2023-04-02T01:56:47.345Z,86.49
2023-04-02T02:00:57.926Z,86.52
2023-04-02T02:05:05.752Z,86.61
2023-04-02T02:09:19.561Z,86.43
2023-04-02T02:13:27.404Z,86.43
2023-04-02T02:17:35.367Z,86.63
2023-04-02T02:21:45.270Z,86.65
2023-04-02T02:25:53.645Z,86.38
2023-04-02T02:30:06.310Z,86.68
2023-04-02T02:34:19.434Z,86.74
2023-04-02T02:38:55.917Z,86.86
2023-04-02T02:43:06.754Z,86.98
2023-04-02T02:47:20.367Z,87.06
2023-04-02T02:51:39.276Z,87.36
2023-04-02T02:55:47.132Z,87.37
2023-04-02T02:59:56.749Z,87.12
2023-04-02T03:04:05.114Z,86.46
2023-04-02T03:08:21.182Z,86.65
2023-04-02T03:12:38.577Z,86.86
2023-04-02T03:16:49.276Z,86.69
2023-04-02T03:21:01.343Z,87.41
2023-04-02T03:25:16.477Z,86.33
2023-04-02T03:29:27.157Z,86.44
2023-04-02T03:33:37.484Z,86.96
2023-04-02T03:37:48.339Z,86.57
2023-04-02T03:41:58.665Z,86.60
2023-04-02T03:46:26.866Z,87.08
2023-04-02T03:50:39.312Z,87.39
2023-04-02T03:54:54.277Z,87.31
2023-04-02T03:59:13.188Z,87.16
2023-04-02T04:03:24.575Z,87.39
2023-04-02T04:07:36.389Z,87.51
2023-04-02T04:11:52.146Z,87.47
2023-04-02T04:16:04.664Z,87.91
2023-04-02T04:20:22.516Z,87.59
2023-04-02T04:24:33.438Z,87.65
2023-04-02T04:28:45.745Z,87.52
2023-04-02T04:32:58.640Z,87.82
2023-04-02T04:37:21.721Z,87.79
2023-04-02T04:41:33.377Z,86.73
2023-04-02T04:45:47.992Z,86.92
2023-04-02T04:49:58.429Z,87.02
2023-04-02T04:54:06.975Z,87.23
2023-04-02T04:58:23.354Z,86.97
2023-04-02T05:02:33.942Z,86.89
2023-04-02T05:06:44.262Z,86.85
2023-04-02T05:10:54.497Z,87.20
2023-04-02T05:15:06.078Z,87.38
2023-04-02T05:19:17.508Z,87.15
2023-04-02T05:23:29.299Z,87.54
2023-04-02T05:27:41.873Z,87.98
2023-04-02T05:31:52.365Z,87.98
2023-04-02T05:36:03.700Z,88.22
2023-04-02T05:40:21.065Z,88.30
2023-04-02T05:44:31.262Z,88.04
2023-04-02T05:48:43.566Z,88.11
2023-04-02T05:52:54.781Z,87.82
2023-04-02T05:57:06.154Z,87.80
2023-04-02T06:01:22.734Z,87.27
2023-04-02T06:05:34.917Z,87.43
2023-04-02T06:09:45.911Z,87.12
2023-04-02T06:13:53.508Z,86.65
2023-04-02T06:18:07.697Z,86.45
2023-04-02T06:22:23.078Z,86.34
2023-04-02T06:26:33.848Z,86.26
2023-04-02T06:30:45.303Z,86.64
2023-04-02T06:34:53.912Z,85.82
2023-04-02T06:39:07.120Z,85.25
2023-04-02T06:43:20.987Z,85.34
2023-04-02T06:47:33.662Z,85.47
2023-04-02T06:51:42.036Z,85.58
2023-04-02T06:55:52.248Z,85.65
2023-04-02T06:59:59.969Z,85.63
2023-04-02T07:04:09.012Z,84.94
2023-04-02T07:08:17.496Z,84.60
2023-04-02T07:12:28.699Z,84.97
2023-04-02T07:16:37.933Z,84.61
2023-04-02T07:20:46.346Z,84.42
2023-04-02T07:24:53.871Z,84.39
2023-04-02T07:29:02.596Z,83.94
2023-04-02T07:33:13.136Z,83.72
2023-04-02T07:37:20.878Z,82.99
2023-04-02T07:41:29.132Z,82.66
2023-04-02T07:45:37.641Z,81.91
2023-04-02T07:49:46.396Z,82.34
2023-04-02T07:53:56.207Z,82.20
2023-04-02T07:58:04.253Z,82.31
2023-04-02T08:02:22.738Z,82.41
2023-04-02T08:06:30.914Z,82.46
2023-04-02T08:10:44.003Z,83.05
2023-04-02T08:14:53.324Z,82.39
2023-04-02T08:19:02.115Z,82.19
2023-04-02T08:23:21.229Z,81.89
2023-04-02T08:27:29.834Z,82.00
2023-04-02T08:31:37.446Z,82.24
2023-04-02T08:35:45.516Z,82.14
2023-04-02T08:39:57.920Z,82.09
2023-04-02T08:44:32.519Z,81.96
2023-04-02T08:48:45.679Z,81.73
2023-04-02T08:52:54.623Z,81.71
2023-04-02T08:57:06.376Z,81.80
2023-04-02T09:01:23.583Z,81.49
2023-04-02T09:05:33.573Z,81.01
2023-04-02T09:09:42.090Z,80.84
2023-04-02T09:13:52.432Z,80.50
2023-04-02T09:18:07.861Z,79.96
2023-04-02T09:22:22.995Z,79.45
2023-04-02T09:26:33.217Z,78.94
2023-04-02T09:30:52.538Z,79.00
2023-04-02T09:35:25.468Z,79.15
2023-04-02T09:39:35.903Z,79.18
2023-04-02T09:43:43.569Z,78.68
2023-04-02T09:47:52.073Z,78.99
2023-04-02T09:52:22.854Z,78.92
2023-04-02T09:56:31.605Z,78.87
2023-04-02T10:00:42.084Z,78.11
2023-04-02T10:04:53.140Z,76.72
2023-04-02T10:09:02.032Z,77.33
2023-04-02T10:13:16.570Z,76.52
2023-04-02T10:17:27.308Z,77.07
2023-04-02T10:21:37.446Z,76.73
2023-04-02T10:25:56.645Z,76.97
2023-04-02T10:30:20.348Z,77.60
2023-04-02T10:34:35.912Z,78.52
2023-04-02T10:38:50.410Z,78.77
2023-04-02T10:43:16.539Z,79.07
2023-04-02T10:47:35.830Z,78.44
2023-04-02T10:51:47.603Z,78.96
2023-04-02T10:56:01.598Z,78.55
2023-04-02T11:00:20.383Z,77.88
2023-04-02T11:04:31.281Z,77.44
2023-04-02T11:08:45.994Z,77.16
2023-04-02T11:12:59.404Z,77.99
2023-04-02T11:17:07.624Z,77.58
2023-04-02T11:21:55.019Z,77.73
2023-04-02T11:26:41.468Z,76.62
2023-04-02T11:30:50.796Z,76.51
2023-04-02T11:35:42.007Z,76.50
2023-04-02T11:39:55.878Z,76.12
2023-04-02T11:44:15.448Z,76.19
2023-04-02T11:48:33.865Z,76.56
2023-04-02T11:52:53.786Z,76.75
2023-04-02T11:57:06.853Z,76.74
2023-04-02T12:01:57.411Z,76.22
2023-04-02T12:06:11.115Z,75.84
2023-04-02T12:10:21.942Z,76.69
2023-04-02T12:14:46.323Z,76.68
2023-04-02T12:18:56.079Z,76.37
2023-04-02T12:23:04.108Z,75.36
2023-04-02T12:27:22.863Z,75.66
2023-04-02T12:31:33.787Z,75.98
2023-04-02T12:35:42.063Z,76.16
2023-04-02T12:40:01.279Z,75.55
2023-04-02T12:44:16.037Z,75.78
2023-04-02T12:48:24.339Z,76.22
2023-04-02T12:52:32.906Z,75.63
2023-04-02T12:56:40.393Z,75.72
2023-04-02T13:00:49.429Z,75.43
2023-04-02T13:05:00.886Z,75.95
2023-04-02T13:09:23.484Z,76.02
2023-04-02T13:13:34.569Z,75.89
2023-04-02T13:17:48.163Z,76.14
2023-04-02T13:21:56.611Z,75.78
2023-04-02T13:26:11.525Z,76.16
2023-04-02T13:30:24.883Z,75.78
2023-04-02T13:34:33.590Z,76.52
2023-04-02T13:38:41.419Z,76.42
2023-04-02T13:42:50.169Z,76.60
2023-04-02T13:46:58.167Z,76.59
2023-04-02T13:51:06.628Z,76.63
2023-04-02T13:55:14.615Z,76.41
2023-04-02T13:59:22.389Z,76.27
2023-04-02T14:03:31.054Z,76.46
2023-04-02T14:07:47.213Z,76.59
2023-04-02T14:12:04.766Z,76.55
2023-04-02T14:16:32.286Z,76.65
2023-04-02T14:20:47.184Z,76.99
2023-04-02T14:25:01.426Z,76.78
2023-04-02T14:29:14.573Z,76.39
2023-04-02T14:33:29.411Z,76.78
2023-04-02T14:37:44.346Z,77.59
2023-04-02T14:41:56.635Z,77.24
2023-04-02T14:46:06.806Z,76.95
2023-04-02T14:50:18.177Z,77.49
2023-04-02T14:54:33.745Z,77.46
2023-04-02T14:58:42.328Z,77.58
2023-04-02T15:02:53.132Z,77.42
2023-04-02T15:07:06.612Z,77.25
2023-04-02T15:11:18.738Z,77.17
2023-04-02T15:15:40.292Z,77.58
2023-04-02T15:19:49.068Z,77.93
2023-04-02T15:24:02.217Z,77.92
2023-04-02T15:28:22.671Z,77.66
2023-04-02T15:32:39.915Z,77.91
2023-04-02T15:37:04.277Z,77.81
2023-04-02T15:41:16.965Z,78.16
2023-04-02T15:45:31.048Z,77.91
2023-04-02T15:49:44.960Z,77.91
2023-04-02T15:54:01.256Z,77.62
2023-04-02T15:58:24.557Z,77.58
2023-04-02T16:02:55.782Z,77.39
2023-04-02T16:07:20.650Z,77.26
2023-04-02T16:11:30.541Z,76.98
2023-04-02T16:15:45.332Z,77.12
2023-04-02T16:19:57.775Z,76.49
2023-04-02T16:24:07.617Z,76.39
2023-04-02T16:28:23.373Z,76.33
2023-04-02T16:32:46.589Z,75.89
2023-04-02T16:37:04.291Z,75.15
2023-04-02T16:41:22.208Z,74.13
2023-04-02T16:45:38.468Z,73.96
2023-04-02T16:49:54.019Z,74.27
2023-04-02T16:54:11.452Z,75.04
2023-04-02T16:58:33.525Z,74.95
2023-04-02T17:02:51.371Z,74.70
2023-04-02T17:07:04.508Z,74.75
2023-04-02T17:11:16.766Z,74.97
2023-04-02T17:15:28.954Z,74.77
2023-04-02T17:19:36.920Z,74.75
2023-04-02T17:23:56.378Z,75.30
2023-04-02T17:28:05.053Z,75.07
2023-04-02T17:32:20.718Z,74.59
2023-04-02T17:36:39.802Z,75.18
2023-04-02T17:40:53.154Z,75.19
2023-04-02T17:45:07.447Z,75.43
2023-04-02T17:49:23.231Z,75.11
2023-04-02T17:53:42.418Z,74.97
2023-04-02T17:58:01.520Z,74.60
2023-04-02T18:02:24.742Z,75.04
2023-04-02T18:06:38.089Z,75.32
2023-04-02T18:10:52.745Z,75.11
2023-04-02T18:15:15.107Z,75.17
2023-04-02T18:19:29.402Z,75.17
2023-04-02T18:23:49.235Z,75.06
2023-04-02T18:28:04.583Z,75.46
2023-04-02T18:32:29.673Z,75.45
2023-04-02T18:36:44.221Z,75.53
2023-04-02T18:41:03.983Z,75.52
2023-04-02T18:45:18.545Z,75.63
2023-04-02T18:49:33.988Z,76.00
2023-04-02T18:53:42.521Z,76.07
2023-04-02T18:57:53.440Z,76.45
2023-04-02T19:02:05.108Z,76.22
2023-04-02T19:06:19.613Z,76.54
2023-04-02T19:10:34.953Z,76.28
2023-04-02T19:14:43.035Z,76.63
2023-04-02T19:18:57.482Z,76.31
2023-04-02T19:23:13.864Z,76.86
2023-04-02T19:27:27.395Z,76.59
2023-04-02T19:31:46.250Z,76.82
2023-04-02T19:35:57.791Z,76.69
2023-04-02T19:40:18.847Z,76.57
2023-04-02T19:44:26.972Z,76.40
2023-04-02T19:48:42.815Z,76.09
2023-04-02T19:52:50.406Z,76.43
2023-04-02T19:56:58.460Z,75.30
2023-04-02T20:01:06.277Z,75.41
2023-04-02T20:05:15.188Z,75.12
2023-04-02T20:09:23.041Z,74.79
2023-04-02T20:13:31.318Z,73.70
2023-04-02T20:17:39.898Z,71.72
2023-04-02T20:21:47.525Z,70.46
2023-04-02T20:25:58.814Z,69.59
2023-04-02T20:30:09.286Z,69.12
2023-04-02T20:34:18.635Z,69.19
2023-04-02T20:38:27.630Z,69.50
2023-04-02T20:42:35.620Z,68.18
2023-04-02T20:46:44.214Z,67.47
2023-04-02T20:50:52.488Z,66.36
2023-04-02T20:55:00.327Z,66.96
2023-04-02T20:59:08.034Z,67.56
2023-04-02T21:03:15.884Z,68.33
2023-04-02T21:07:23.409Z,68.90
2023-04-02T21:11:31.463Z,66.65
2023-04-02T21:15:44.251Z,66.28
2023-04-02T21:19:52.268Z,65.64
2023-04-02T21:24:01.741Z,64.55
2023-04-02T21:28:09.862Z,64.80
2023-04-02T21:32:21.667Z,64.96
2023-04-02T21:36:31.681Z,65.62
2023-04-02T21:40:39.627Z,65.34
2023-04-02T21:44:47.484Z,65.99
2023-04-02T21:48:57.698Z,65.41
2023-04-02T21:53:05.256Z,65.25
2023-04-02T21:57:13.191Z,65.68
2023-04-02T22:01:27.411Z,65.55
2023-04-02T22:05:35.335Z,66.12
2023-04-02T22:09:44.062Z,65.70
2023-04-02T22:13:52.373Z,65.27
2023-04-02T22:18:01.117Z,65.46
2023-04-02T22:22:08.905Z,65.17
2023-04-02T22:26:18.163Z,65.67
2023-04-02T22:30:30.137Z,65.97
2023-04-02T22:34:44.153Z,65.73
2023-04-02T22:38:52.333Z,66.08
2023-04-02T22:43:00.449Z,65.80
2023-04-02T22:47:08.629Z,66.07
2023-04-02T22:51:18.563Z,66.40
2023-04-02T22:55:27.088Z,67.25
2023-04-02T22:59:34.799Z,67.97
2023-04-02T23:03:42.903Z,67.89
2023-04-02T23:07:52.286Z,68.49
2023-04-02T23:11:59.675Z,68.31
2023-04-02T23:16:10.005Z,68.43
2023-04-02T23:20:17.903Z,69.07
2023-04-02T23:24:25.582Z,68.93
2023-04-02T23:28:33.331Z,69.03
2023-04-02T23:32:40.655Z,69.22
2023-04-02T23:36:48.613Z,69.67
2023-04-02T23:40:57.040Z,69.66
2023-04-02T23:45:04.684Z,69.26
2023-04-02T23:49:14.533Z,69.71
2023-04-02T23:53:22.611Z,70.22
2023-04-02T23:57:30.633Z,70.93
